Time;durP1;ratioP1;P1;durP2;ratioP2;P2;SDS_P1;SDS_P2;PMS_P1;PMS_P2;Temp;Humidity;BMP_temperature;BMP_pressure;BME280_temperature;BME280_humidity;BME280_pressure;Samples;Min_cycle;Max_cycle;Signal;HPM_P1;HPM_P2
2023/04/16 00:00:36;;;;;;;;;;;8.50;99.90;;;;;;4961567;28;220800;-72
2023/04/16 00:03:05;;;;;;;;;;;8.50;99.90;;;;;;5014630;28;19931;-69
2023/04/16 00:05:41;;;;;;;;;;;8.50;99.90;;;;;;4977821;28;256747;-69
2023/04/16 00:08:07;;;;;;;;;;;8.50;99.90;;;;;;5035702;28;20081;-69
2023/04/16 00:10:35;;;;;;;;;;;8.50;99.90;;;;;;4985854;28;209969;-68
2023/04/16 00:13:01;;;;;;;;;;;8.50;99.90;;;;;;5033337;28;19932;-70
2023/04/16 00:15:27;;;;;;;;;;;8.50;99.90;;;;;;4991986;28;219187;-69
2023/04/16 00:17:53;;;;;;;;;;;8.50;99.90;;;;;;5046492;28;19939;-70
2023/04/16 00:20:19;;;;;;;;;;;8.50;99.90;;;;;;4984329;28;210569;-68
2023/04/16 00:22:45;;;;;;;;;;;8.50;99.90;;;;;;5044034;28;19928;-70
2023/04/16 00:25:12;;;;;;;;;;;8.50;99.90;;;;;;4991066;28;207423;-70
2023/04/16 00:27:38;;;;;;;;;;;8.50;99.90;;;;;;5035872;28;19928;-68
2023/04/16 00:30:04;;;;;;;;;;;8.50;99.90;;;;;;5027745;28;207784;-70
2023/04/16 00:32:30;;;;;;;;;;;8.50;99.90;;;;;;4998135;28;19921;-69
2023/04/16 00:34:56;;;;;;;;;;;8.50;99.90;;;;;;5041159;28;19951;-70
2023/04/16 00:37:22;;;;;;;;;;;8.50;99.90;;;;;;4999492;28;214072;-70
2023/04/16 00:39:49;;;;;;;;;;;8.50;99.90;;;;;;5047956;28;19928;-69
2023/04/16 00:42:15;;;;;;;;;;;8.50;99.90;;;;;;4988877;28;207907;-69
2023/04/16 00:44:41;;;;;;;;;;;8.50;99.90;;;;;;5047688;28;20601;-69
2023/04/16 00:47:06;;;;;;;;;;;8.50;99.90;;;;;;4974678;28;207676;-70
2023/04/16 00:49:32;;;;;;;;;;;8.60;99.90;;;;;;5060242;28;19924;-68
2023/04/16 00:52:01;;;;;;;;;;;8.50;99.90;;;;;;4992999;28;206826;-69
2023/04/16 00:54:27;;;;;;;;;;;8.50;99.90;;;;;;5043452;28;19935;-68
2023/04/16 00:56:53;;;;;;;;;;;8.50;99.90;;;;;;4987134;28;216592;-69
2023/04/16 00:59:19;;;;;;;;;;;8.50;99.90;;;;;;5048378;28;19928;-69
2023/04/16 01:01:45;;;;;;;;;;;8.50;99.90;;;;;;4978136;28;209114;-70
2023/04/16 01:04:11;;;;;;;;;;;8.60;99.90;;;;;;5044985;28;19932;-69
2023/04/16 01:06:37;;;;;;;;;;;8.50;99.90;;;;;;4989152;28;215118;-68
2023/04/16 01:09:04;;;;;;;;;;;8.50;99.90;;;;;;5047325;28;19931;-70
2023/04/16 01:11:30;;;;;;;;;;;8.50;99.90;;;;;;5000153;28;208891;-69
2023/04/16 01:13:55;;;;;;;;;;;8.50;99.90;;;;;;5044538;28;19928;-71
2023/04/16 01:16:21;;;;;;;;;;;8.60;99.90;;;;;;4977071;28;207081;-69
2023/04/16 01:18:47;;;;;;;;;;;8.60;99.90;;;;;;5044206;28;19935;-70
2023/04/16 01:21:13;;;;;;;;;;;8.60;99.90;;;;;;4998412;28;209725;-69
2023/04/16 01:23:39;;;;;;;;;;;8.60;99.90;;;;;;5046630;28;19928;-69
2023/04/16 01:26:05;;;;;;;;;;;8.60;99.90;;;;;;5012475;28;166151;-69
2023/04/16 01:28:31;;;;;;;;;;;8.60;99.90;;;;;;5056270;28;19925;-70
2023/04/16 01:30:57;;;;;;;;;;;8.60;99.90;;;;;;5010546;28;208472;-70
2023/04/16 01:33:23;;;;;;;;;;;8.60;99.90;;;;;;5069950;28;19925;-69
2023/04/16 01:35:49;;;;;;;;;;;8.60;99.90;;;;;;5009365;28;207477;-70
2023/04/16 01:38:15;;;;;;;;;;;8.60;99.90;;;;;;5075542;28;19940;-69
2023/04/16 01:40:41;;;;;;;;;;;8.50;99.90;;;;;;5014365;28;213090;-67
2023/04/16 01:43:07;;;;;;;;;;;8.50;99.90;;;;;;5061181;28;20008;-69
2023/04/16 01:45:33;;;;;;;;;;;8.50;99.90;;;;;;5006288;28;209518;-69
2023/04/16 01:47:59;;;;;;;;;;;8.50;99.90;;;;;;5058073;28;19924;-69
2023/04/16 01:50:26;;;;;;;;;;;8.50;99.90;;;;;;5012138;28;209082;-70
2023/04/16 01:52:51;;;;;;;;;;;8.50;99.90;;;;;;5062293;28;19935;-69
2023/04/16 01:55:17;;;;;;;;;;;8.50;99.90;;;;;;5009015;28;213477;-69
2023/04/16 01:57:43;;;;;;;;;;;8.50;99.90;;;;;;5045356;28;20650;-69
2023/04/16 02:00:10;;;;;;;;;;;8.40;99.90;;;;;;5005096;28;209698;-68
2023/04/16 02:02:36;;;;;;;;;;;8.40;99.90;;;;;;5043192;28;121845;-68
2023/04/16 02:05:02;;;;;;;;;;;8.30;99.90;;;;;;5064778;28;208515;-69
2023/04/16 02:07:28;;;;;;;;;;;8.40;99.90;;;;;;5011294;28;206650;-70
2023/04/16 02:09:54;;;;;;;;;;;8.30;99.90;;;;;;5053885;28;20683;-68
2023/04/16 02:12:19;;;;;;;;;;;8.40;99.90;;;;;;4980981;28;207786;-69
2023/04/16 02:14:46;;;;;;;;;;;8.30;99.90;;;;;;5055303;28;19935;-69
2023/04/16 02:17:11;;;;;;;;;;;8.30;99.90;;;;;;4986880;28;207047;-69
2023/04/16 02:19:37;;;;;;;;;;;8.40;99.90;;;;;;5052445;28;20311;-69
2023/04/16 02:22:03;;;;;;;;;;;8.40;99.90;;;;;;5004074;28;206414;-68
2023/04/16 02:24:29;;;;;;;;;;;8.30;99.90;;;;;;5046701;28;19932;-68
2023/04/16 02:26:55;;;;;;;;;;;8.40;99.90;;;;;;5007678;28;206658;-68
2023/04/16 02:29:21;;;;;;;;;;;8.40;99.90;;;;;;5040912;28;19943;-68
2023/04/16 02:31:48;;;;;;;;;;;8.40;99.90;;;;;;5001454;28;209873;-68
2023/04/16 02:34:14;;;;;;;;;;;8.30;99.90;;;;;;5047404;28;20008;-70
2023/04/16 02:36:40;;;;;;;;;;;8.40;99.90;;;;;;4978629;28;205836;-69
2023/04/16 02:39:06;;;;;;;;;;;8.40;99.90;;;;;;5030859;28;19928;-69
2023/04/16 02:41:32;;;;;;;;;;;8.30;99.90;;;;;;4999351;28;214732;-70
2023/04/16 02:43:58;;;;;;;;;;;8.30;99.90;;;;;;5039261;28;19928;-70
2023/04/16 02:46:24;;;;;;;;;;;8.40;99.90;;;;;;4968236;28;198222;-70
2023/04/16 02:48:50;;;;;;;;;;;8.30;99.90;;;;;;4995465;28;20771;-69
2023/04/16 02:51:16;;;;;;;;;;;8.30;99.90;;;;;;4960682;28;213925;-70
2023/04/16 02:53:45;;;;;;;;;;;8.30;99.90;;;;;;5036564;28;19991;-69
2023/04/16 02:56:11;;;;;;;;;;;8.30;99.90;;;;;;4986785;28;206954;-70
2023/04/16 02:58:37;;;;;;;;;;;8.30;99.90;;;;;;5035104;28;19925;-70
2023/04/16 03:01:03;;;;;;;;;;;8.30;99.90;;;;;;4976134;28;217372;-70
2023/04/16 03:03:29;;;;;;;;;;;8.30;99.90;;;;;;5077799;28;19933;-68
2023/04/16 03:05:56;;;;;;;;;;;8.30;99.90;;;;;;5010302;28;207016;-69
2023/04/16 03:08:21;;;;;;;;;;;8.30;99.90;;;;;;5042283;28;19940;-69
2023/04/16 03:10:47;;;;;;;;;;;8.30;99.90;;;;;;4998023;28;209903;-69
2023/04/16 03:13:13;;;;;;;;;;;8.30;99.90;;;;;;5057562;28;20522;-70
2023/04/16 03:15:39;;;;;;;;;;;8.30;99.90;;;;;;4992419;28;218860;-69
2023/04/16 03:18:05;;;;;;;;;;;8.30;99.90;;;;;;5050085;28;19924;-69
2023/04/16 03:20:31;;;;;;;;;;;8.20;99.90;;;;;;4992979;28;209482;-69
2023/04/16 03:22:57;;;;;;;;;;;8.20;99.90;;;;;;5038739;28;19928;-69
2023/04/16 03:25:23;;;;;;;;;;;8.20;99.90;;;;;;4990194;28;206498;-70
2023/04/16 03:27:49;;;;;;;;;;;8.20;99.90;;;;;;5061225;28;19929;-70
2023/04/16 03:30:15;;;;;;;;;;;8.20;99.90;;;;;;4995301;28;207107;-70
2023/04/16 03:32:41;;;;;;;;;;;8.20;99.90;;;;;;5051335;28;20443;-70
2023/04/16 03:35:08;;;;;;;;;;;8.20;99.90;;;;;;5015519;28;208413;-70
2023/04/16 03:37:34;;;;;;;;;;;8.20;99.90;;;;;;5024704;28;19925;-69
2023/04/16 03:40:00;;;;;;;;;;;8.20;99.90;;;;;;5043585;28;19935;-70
2023/04/16 03:42:26;;;;;;;;;;;8.20;99.90;;;;;;4976287;28;207446;-69
2023/04/16 03:44:53;;;;;;;;;;;8.20;99.90;;;;;;5049003;28;19933;-69
2023/04/16 03:47:19;;;;;;;;;;;8.20;99.90;;;;;;5005850;28;205418;-69
2023/04/16 03:49:45;;;;;;;;;;;8.10;99.90;;;;;;5047215;28;19925;-69
2023/04/16 03:52:11;;;;;;;;;;;8.10;99.90;;;;;;4998237;28;210002;-70
2023/04/16 03:54:37;;;;;;;;;;;8.10;99.90;;;;;;5044625;28;19932;-70
2023/04/16 03:57:03;;;;;;;;;;;8.20;99.90;;;;;;5003321;28;207995;-69
2023/04/16 03:59:29;;;;;;;;;;;8.10;99.90;;;;;;5046825;28;19979;-68
2023/04/16 04:01:55;;;;;;;;;;;8.10;99.90;;;;;;4973263;28;207928;-70
2023/04/16 04:04:20;;;;;;;;;;;8.10;99.90;;;;;;5039423;28;20459;-70
2023/04/16 04:06:47;;;;;;;;;;;8.10;99.90;;;;;;4979659;28;207864;-68
2023/04/16 04:09:13;;;;;;;;;;;8.10;99.90;;;;;;5039098;28;19929;-70
2023/04/16 04:11:39;;;;;;;;;;;8.00;99.90;;;;;;4979119;28;215210;-69
2023/04/16 04:14:05;;;;;;;;;;;8.00;99.90;;;;;;5042966;28;19954;-69
2023/04/16 04:16:31;;;;;;;;;;;8.00;99.90;;;;;;5002446;28;207987;-69
2023/04/16 04:18:58;;;;;;;;;;;8.00;99.90;;;;;;5049136;28;20377;-69
2023/04/16 04:21:26;;;;;;;;;;;8.00;99.90;;;;;;4977633;28;180376;-70
2023/04/16 04:23:51;;;;;;;;;;;8.00;99.90;;;;;;5048466;28;19928;-70
2023/04/16 04:26:17;;;;;;;;;;;8.00;99.90;;;;;;5006990;28;208586;-69
2023/04/16 04:28:43;;;;;;;;;;;8.00;99.90;;;;;;5063693;28;19943;-69
2023/04/16 04:31:09;;;;;;;;;;;7.90;99.90;;;;;;5015167;28;209489;-70
2023/04/16 04:33:35;;;;;;;;;;;7.90;99.90;;;;;;5071692;28;19929;-69
2023/04/16 04:36:01;;;;;;;;;;;7.90;99.90;;;;;;5011485;28;212547;-70
2023/04/16 04:38:28;;;;;;;;;;;7.90;99.90;;;;;;5062998;28;20408;-70
2023/04/16 04:40:54;;;;;;;;;;;7.90;99.90;;;;;;5013643;28;209741;-70
2023/04/16 04:43:20;;;;;;;;;;;7.90;99.90;;;;;;5079904;28;19970;-70
2023/04/16 04:45:47;;;;;;;;;;;7.90;99.90;;;;;;5016832;28;208323;-69
2023/04/16 04:48:14;;;;;;;;;;;8.00;99.90;;;;;;5066320;28;19924;-68
2023/04/16 04:50:40;;;;;;;;;;;7.90;99.90;;;;;;5003880;28;211713;-70
2023/04/16 04:53:09;;;;;;;;;;;8.00;99.90;;;;;;5064777;28;20497;-68
2023/04/16 04:55:36;;;;;;;;;;;8.00;99.90;;;;;;5008874;28;207002;-71
2023/04/16 04:58:03;;;;;;;;;;;8.00;99.90;;;;;;5055509;28;20389;-68
2023/04/16 05:00:30;;;;;;;;;;;8.00;99.90;;;;;;4992363;28;215988;-71
2023/04/16 05:02:55;;;;;;;;;;;8.00;99.90;;;;;;5075131;28;19925;-72
2023/04/16 05:05:22;;;;;;;;;;;8.00;99.90;;;;;;5014294;28;206842;-72
2023/04/16 05:07:48;;;;;;;;;;;8.00;99.90;;;;;;5078305;28;19920;-70
2023/04/16 05:10:14;;;;;;;;;;;8.00;99.90;;;;;;5011450;28;210513;-71
2023/04/16 05:12:40;;;;;;;;;;;8.00;99.90;;;;;;5050396;28;19928;-73
2023/04/16 05:15:06;;;;;;;;;;;8.10;99.90;;;;;;5038438;28;207572;-71
2023/04/16 05:17:32;;;;;;;;;;;8.10;99.90;;;;;;5049116;28;206907;-72
2023/04/16 05:19:59;;;;;;;;;;;8.10;99.90;;;;;;5066122;28;20086;-71
2023/04/16 05:22:25;;;;;;;;;;;8.20;99.90;;;;;;5015408;28;214493;-72
2023/04/16 05:24:51;;;;;;;;;;;8.10;99.90;;;;;;5059086;28;19959;-71
2023/04/16 05:27:16;;;;;;;;;;;8.10;99.90;;;;;;4998006;28;203889;-70
2023/04/16 05:29:42;;;;;;;;;;;8.10;99.90;;;;;;5065124;28;19993;-71
2023/04/16 05:32:08;;;;;;;;;;;8.10;99.90;;;;;;5024707;28;209639;-71
2023/04/16 05:34:34;;;;;;;;;;;8.10;99.90;;;;;;5064643;28;20377;-70
2023/04/16 05:37:00;;;;;;;;;;;8.10;99.90;;;;;;5009673;28;207414;-71
2023/04/16 05:39:26;;;;;;;;;;;8.10;99.90;;;;;;5063876;28;19920;-71
2023/04/16 05:41:52;;;;;;;;;;;8.10;99.90;;;;;;5004276;28;188205;-71
2023/04/16 05:44:18;;;;;;;;;;;8.20;99.90;;;;;;5069280;28;20649;-71
2023/04/16 05:46:44;;;;;;;;;;;8.10;99.90;;;;;;5002256;28;209795;-70
2023/04/16 05:49:10;;;;;;;;;;;8.20;99.90;;;;;;5068311;28;20529;-71
2023/04/16 05:51:36;;;;;;;;;;;8.10;99.90;;;;;;5007894;28;213697;-72
2023/04/16 05:54:02;;;;;;;;;;;8.20;99.90;;;;;;5071159;28;19994;-71
2023/04/16 05:56:27;;;;;;;;;;;8.20;99.90;;;;;;5010566;28;216958;-71
2023/04/16 05:58:53;;;;;;;;;;;8.20;99.90;;;;;;5062779;28;19930;-71
2023/04/16 06:01:20;;;;;;;;;;;8.20;99.90;;;;;;5008254;28;157638;-71
2023/04/16 06:03:46;;;;;;;;;;;8.20;99.90;;;;;;5066261;28;20324;-70
2023/04/16 06:06:11;;;;;;;;;;;8.30;99.90;;;;;;5003403;28;205814;-71
2023/04/16 06:08:39;;;;;;;;;;;8.30;99.90;;;;;;5074972;28;19978;-71
2023/04/16 06:11:05;;;;;;;;;;;8.30;99.90;;;;;;5011064;28;207159;-71
2023/04/16 06:13:31;;;;;;;;;;;8.30;99.90;;;;;;5066886;28;20341;-72
2023/04/16 06:15:57;;;;;;;;;;;8.20;99.90;;;;;;5017925;28;209035;-70
2023/04/16 06:18:23;;;;;;;;;;;8.40;99.90;;;;;;5059447;28;19936;-73
2023/04/16 06:20:49;;;;;;;;;;;8.30;99.90;;;;;;5004799;28;209790;-72
2023/04/16 06:23:15;;;;;;;;;;;8.30;99.90;;;;;;5045796;28;19951;-71
2023/04/16 06:25:41;;;;;;;;;;;8.40;99.90;;;;;;5007242;28;205394;-71
2023/04/16 06:28:07;;;;;;;;;;;8.40;99.90;;;;;;5071671;28;19939;-71
2023/04/16 06:30:33;;;;;;;;;;;8.50;99.90;;;;;;5003261;28;225061;-71
2023/04/16 06:32:59;;;;;;;;;;;8.50;99.90;;;;;;5078206;28;19943;-72
2023/04/16 06:35:25;;;;;;;;;;;8.50;99.90;;;;;;4998111;28;243424;-72
2023/04/16 06:37:51;;;;;;;;;;;8.50;99.90;;;;;;5043194;28;20281;-72
2023/04/16 06:40:17;;;;;;;;;;;8.50;99.90;;;;;;4987997;28;208804;-70
2023/04/16 06:42:43;;;;;;;;;;;8.60;99.90;;;;;;5069592;28;19920;-71
2023/04/16 06:45:09;;;;;;;;;;;8.60;99.90;;;;;;5016560;28;233959;-71
2023/04/16 06:47:35;;;;;;;;;;;8.60;99.90;;;;;;5063706;28;19933;-71
2023/04/16 06:50:01;;;;;;;;;;;8.60;99.90;;;;;;5056883;28;19929;-70
2023/04/16 06:52:27;;;;;;;;;;;8.70;99.90;;;;;;5006244;28;127922;-71
2023/04/16 06:54:53;;;;;;;;;;;8.80;99.90;;;;;;5059125;28;19928;-71
2023/04/16 06:57:19;;;;;;;;;;;9.00;99.90;;;;;;5017481;28;215503;-72
2023/04/16 06:59:45;;;;;;;;;;;9.10;99.90;;;;;;5064063;28;19925;-70
2023/04/16 07:02:11;;;;;;;;;;;9.20;99.90;;;;;;4821396;28;5444423;-72
2023/04/16 07:04:37;;;;;;;;;;;9.20;99.90;;;;;;5055977;28;20038;-72
2023/04/16 07:07:03;;;;;;;;;;;9.20;99.90;;;;;;5016611;28;209832;-72
2023/04/16 07:09:29;;;;;;;;;;;9.20;99.90;;;;;;5058526;28;20609;-72
2023/04/16 07:11:55;;;;;;;;;;;9.20;99.90;;;;;;5019324;28;208337;-72
2023/04/16 07:14:21;;;;;;;;;;;9.20;99.90;;;;;;5062448;28;20293;-72
2023/04/16 07:16:47;;;;;;;;;;;9.30;99.90;;;;;;5018089;28;205586;-72
2023/04/16 07:19:12;;;;;;;;;;;9.30;99.90;;;;;;5060593;28;19925;-72
2023/04/16 07:21:40;;;;;;;;;;;9.30;99.90;;;;;;5017096;28;209747;-72
2023/04/16 07:24:06;;;;;;;;;;;9.30;99.90;;;;;;5055029;28;19929;-72
2023/04/16 07:26:32;;;;;;;;;;;9.30;99.90;;;;;;4999551;28;212027;-74
2023/04/16 07:28:58;;;;;;;;;;;9.30;99.90;;;;;;5052588;28;19956;-72
2023/04/16 07:31:24;;;;;;;;;;;9.30;99.90;;;;;;4997006;28;208659;-71
2023/04/16 07:33:50;;;;;;;;;;;9.40;99.90;;;;;;5059669;28;19955;-72
2023/04/16 07:36:16;;;;;;;;;;;9.50;99.90;;;;;;5000998;28;212542;-72
2023/04/16 07:38:42;;;;;;;;;;;9.60;99.90;;;;;;5051118;28;19944;-72
2023/04/16 07:41:08;;;;;;;;;;;9.70;99.90;;;;;;5005913;28;209577;-72
2023/04/16 07:43:34;;;;;;;;;;;9.80;99.90;;;;;;5059186;28;20463;-67
2023/04/16 07:46:00;;;;;;;;;;;9.90;99.90;;;;;;5010203;28;207673;-70
2023/04/16 07:48:26;;;;;;;;;;;10.00;99.90;;;;;;5065607;28;19932;-71
2023/04/16 07:50:52;;;;;;;;;;;10.10;99.90;;;;;;5013679;28;206717;-71
2023/04/16 07:53:18;;;;;;;;;;;10.10;99.90;;;;;;5066840;28;20348;-71
2023/04/16 07:55:44;;;;;;;;;;;10.00;99.90;;;;;;5004318;28;217706;-71
2023/04/16 07:58:10;;;;;;;;;;;10.00;99.90;;;;;;5041765;28;20380;-71
2023/04/16 08:00:36;;;;;;;;;;;10.10;99.90;;;;;;4990723;28;212607;-71
2023/04/16 08:03:02;;;;;;;;;;;10.10;99.90;;;;;;5038257;28;20698;-72
2023/04/16 08:05:28;;;;;;;;;;;10.10;99.90;;;;;;5005305;28;207435;-70
2023/04/16 08:07:54;;;;;;;;;;;10.10;99.90;;;;;;5041774;28;19946;-70
2023/04/16 08:10:20;;;;;;;;;;;10.10;99.90;;;;;;4984652;28;220107;-70
2023/04/16 08:12:46;;;;;;;;;;;10.10;99.90;;;;;;5013997;28;19926;-70
2023/04/16 08:15:12;;;;;;;;;;;10.10;99.90;;;;;;5006093;28;215743;-71
2023/04/16 08:17:38;;;;;;;;;;;10.20;99.90;;;;;;5054828;28;21137;-70
2023/04/16 08:20:04;;;;;;;;;;;10.20;99.90;;;;;;5042142;28;205228;-71
2023/04/16 08:22:31;;;;;;;;;;;10.30;99.90;;;;;;5010526;28;33605;-71
2023/04/16 08:24:57;;;;;;;;;;;10.30;99.90;;;;;;5044584;28;19928;-72
2023/04/16 08:27:23;;;;;;;;;;;10.40;99.90;;;;;;5022373;28;208035;-72
2023/04/16 08:29:49;;;;;;;;;;;10.50;99.90;;;;;;5057230;28;19924;-71
2023/04/16 08:32:15;;;;;;;;;;;10.50;99.90;;;;;;5016190;28;204922;-71
2023/04/16 08:34:41;;;;;;;;;;;10.60;99.90;;;;;;5066804;28;19932;-72
2023/04/16 08:37:07;;;;;;;;;;;10.80;99.90;;;;;;4982101;28;215674;-72
2023/04/16 08:39:33;;;;;;;;;;;10.90;99.90;;;;;;5071493;28;20411;-71
2023/04/16 08:42:00;;;;;;;;;;;10.90;99.90;;;;;;4996938;28;215100;-71
2023/04/16 08:44:27;;;;;;;;;;;11.10;99.90;;;;;;5057084;28;19938;-71
2023/04/16 08:46:56;;;;;;;;;;;11.20;99.90;;;;;;4999713;28;227040;-71
2023/04/16 08:49:23;;;;;;;;;;;11.40;99.90;;;;;;5058415;28;19944;-71
2023/04/16 08:51:50;;;;;;;;;;;11.80;99.90;;;;;;5013351;28;215629;-71
2023/04/16 08:54:22;;;;;;;;;;;12.10;99.90;;;;;;5058132;28;19924;-72
2023/04/16 08:56:48;;;;;;;;;;;12.40;99.90;;;;;;5015632;28;209126;-72
2023/04/16 08:59:14;;;;;;;;;;;12.70;99.90;;;;;;5056632;28;19928;-71
2023/04/16 09:01:40;;;;;;;;;;;12.70;99.90;;;;;;4967494;28;233120;-72
2023/04/16 09:04:06;;;;;;;;;;;12.90;99.90;;;;;;5058022;28;21378;-71
2023/04/16 09:06:33;;;;;;;;;;;13.20;99.90;;;;;;5004762;28;206405;-71
2023/04/16 09:09:02;;;;;;;;;;;13.30;99.90;;;;;;5049645;28;19924;-71
2023/04/16 09:11:29;;;;;;;;;;;13.40;99.90;;;;;;5013256;28;239725;-71
2023/04/16 09:13:56;;;;;;;;;;;13.50;99.90;;;;;;5064008;28;19928;-71
2023/04/16 09:16:22;;;;;;;;;;;13.70;99.90;;;;;;5011869;28;210620;-71
2023/04/16 09:18:50;;;;;;;;;;;13.70;99.90;;;;;;5069514;28;19924;-71
2023/04/16 09:21:16;;;;;;;;;;;13.80;99.90;;;;;;5004616;28;209229;-71
2023/04/16 09:23:42;;;;;;;;;;;13.80;99.90;;;;;;5063759;28;20392;-70
2023/04/16 09:26:08;;;;;;;;;;;13.80;99.90;;;;;;5003913;28;220897;-72
2023/04/16 09:28:41;;;;;;;;;;;13.90;99.90;;;;;;5056993;28;20341;-71
2023/04/16 09:31:12;;;;;;;;;;;14.00;99.90;;;;;;5006417;28;206043;-71
2023/04/16 09:33:38;;;;;;;;;;;13.90;99.90;;;;;;5052423;28;20468;-70
2023/04/16 09:36:05;;;;;;;;;;;13.90;99.90;;;;;;5010171;28;211829;-71
2023/04/16 09:39:01;;;;;;;;;;;13.90;99.90;;;;;;5049704;28;19932;-72
2023/04/16 09:41:28;;;;;;;;;;;14.10;99.90;;;;;;4985694;28;173652;-72
2023/04/16 09:43:57;;;;;;;;;;;14.10;99.90;;;;;;5058398;28;20376;-72
2023/04/16 09:46:41;;;;;;;;;;;14.10;99.90;;;;;;5017156;28;207455;-71
2023/04/16 09:49:17;;;;;;;;;;;14.40;99.90;;;;;;5062048;28;19932;-71
2023/04/16 09:51:44;;;;;;;;;;;14.60;99.90;;;;;;5008997;28;224515;-72
2023/04/16 09:54:10;;;;;;;;;;;14.60;99.90;;;;;;5058995;28;19925;-71
2023/04/16 09:56:39;;;;;;;;;;;14.50;99.90;;;;;;5008719;28;206268;-71
2023/04/16 09:59:05;;;;;;;;;;;14.70;99.90;;;;;;5051201;28;19924;-71
2023/04/16 10:01:31;;;;;;;;;;;14.70;99.90;;;;;;4994756;28;226753;-72
2023/04/16 10:03:57;;;;;;;;;;;15.10;99.90;;;;;;5054155;28;19935;-71
2023/04/16 10:06:25;;;;;;;;;;;15.30;99.90;;;;;;5013458;28;138495;-71
2023/04/16 10:08:52;;;;;;;;;;;15.30;99.90;;;;;;5039554;28;19929;-71
2023/04/16 10:11:19;;;;;;;;;;;15.60;99.90;;;;;;4998232;28;202959;-71
2023/04/16 10:13:45;;;;;;;;;;;15.60;99.90;;;;;;5060946;28;20309;-71
2023/04/16 10:16:11;;;;;;;;;;;15.60;99.90;;;;;;5009074;28;219415;-72
2023/04/16 10:18:38;;;;;;;;;;;15.60;99.90;;;;;;5039025;28;19921;-72
2023/04/16 10:21:04;;;;;;;;;;;15.90;99.90;;;;;;4997022;28;206938;-72
2023/04/16 10:23:31;;;;;;;;;;;15.90;99.90;;;;;;5052722;28;19931;-70
2023/04/16 10:25:57;;;;;;;;;;;16.20;99.90;;;;;;4989529;28;523849;-72
2023/04/16 10:28:23;;;;;;;;;;;16.00;99.90;;;;;;5067014;28;19920;-71
2023/04/16 10:30:53;;;;;;;;;;;16.20;99.90;;;;;;4993618;28;209550;-72
2023/04/16 10:33:20;;;;;;;;;;;16.30;99.90;;;;;;5038607;28;19931;-72
2023/04/16 10:35:47;;;;;;;;;;;16.50;99.90;;;;;;5008967;28;207236;-71
2023/04/16 10:38:26;;;;;;;;;;;16.60;99.90;;;;;;5070859;28;19924;-71
2023/04/16 10:41:01;;;;;;;;;;;16.60;99.90;;;;;;5008519;28;206358;-71
2023/04/16 10:43:28;;;;;;;;;;;16.70;99.90;;;;;;5057957;28;19920;-70
2023/04/16 10:45:54;;;;;;;;;;;16.70;99.90;;;;;;5006182;28;208603;-70
2023/04/16 10:48:22;;;;;;;;;;;16.50;99.90;;;;;;5065260;28;19935;-70
2023/04/16 10:50:57;;;;;;;;;;;16.30;99.90;;;;;;4994787;28;214967;-71
2023/04/16 10:53:25;;;;;;;;;;;16.30;99.90;;;;;;5052006;28;20321;-71
2023/04/16 10:56:05;;;;;;;;;;;16.40;99.90;;;;;;5005815;28;223282;-69
2023/04/16 10:58:34;;;;;;;;;;;16.40;99.90;;;;;;5054365;28;19925;-70
2023/04/16 11:01:05;;;;;;;;;;;16.30;99.90;;;;;;4991216;28;220351;-71
2023/04/16 11:03:31;;;;;;;;;;;16.30;99.90;;;;;;5066594;28;19925;-71
2023/04/16 11:06:16;;;;;;;;;;;16.40;99.90;;;;;;5004980;28;224152;-71
2023/04/16 11:08:45;;;;;;;;;;;16.50;99.90;;;;;;5064267;28;20218;-72
2023/04/16 11:11:11;;;;;;;;;;;16.40;99.90;;;;;;4996754;28;209633;-71
2023/04/16 11:13:41;;;;;;;;;;;16.50;99.90;;;;;;5056819;28;19921;-71
2023/04/16 11:16:07;;;;;;;;;;;16.60;99.90;;;;;;5004467;28;207915;-72
2023/04/16 11:18:34;;;;;;;;;;;16.40;99.90;;;;;;5061348;28;20308;-70
2023/04/16 11:21:00;;;;;;;;;;;16.40;99.90;;;;;;5004945;28;209929;-70
2023/04/16 11:23:26;;;;;;;;;;;16.20;99.90;;;;;;5059541;28;19924;-71
2023/04/16 11:25:55;;;;;;;;;;;16.30;99.90;;;;;;5001763;28;209634;-71
2023/04/16 11:28:31;;;;;;;;;;;16.30;99.90;;;;;;5054118;28;19929;-71
2023/04/16 11:30:58;;;;;;;;;;;16.40;99.90;;;;;;5012493;28;74125;-71
2023/04/16 11:33:24;;;;;;;;;;;16.20;99.90;;;;;;5050976;28;19924;-71
2023/04/16 11:35:57;;;;;;;;;;;16.40;99.90;;;;;;4989953;28;206402;-71
2023/04/16 11:38:31;;;;;;;;;;;16.60;99.90;;;;;;5055255;28;19931;-71
2023/04/16 11:40:59;;;;;;;;;;;16.10;99.90;;;;;;5007461;28;206805;-70
2023/04/16 11:43:25;;;;;;;;;;;16.10;99.90;;;;;;5061531;28;20038;-70
2023/04/16 11:45:55;;;;;;;;;;;16.10;99.90;;;;;;5010368;28;205782;-71
2023/04/16 11:48:21;;;;;;;;;;;16.10;99.90;;;;;;5066405;28;19935;-70
2023/04/16 11:50:53;;;;;;;;;;;16.00;99.90;;;;;;5006333;28;215649;-70
2023/04/16 11:53:19;;;;;;;;;;;16.10;99.90;;;;;;5069473;28;19920;-71
2023/04/16 11:55:45;;;;;;;;;;;16.10;99.90;;;;;;4997058;28;205975;-71
2023/04/16 11:58:12;;;;;;;;;;;16.30;99.90;;;;;;5057632;28;19939;-70
2023/04/16 12:00:37;;;;;;;;;;;16.60;99.90;;;;;;4992962;28;206793;-71
2023/04/16 12:03:03;;;;;;;;;;;16.70;99.90;;;;;;5067411;28;19921;-71
2023/04/16 12:05:31;;;;;;;;;;;16.30;99.90;;;;;;5002624;28;207621;-71
2023/04/16 12:07:57;;;;;;;;;;;16.60;99.90;;;;;;5069541;28;19928;-70
2023/04/16 12:10:23;;;;;;;;;;;16.90;99.90;;;;;;5000459;28;210206;-72
2023/04/16 12:12:49;;;;;;;;;;;17.20;99.90;;;;;;5070833;28;19932;-71
2023/04/16 12:15:15;;;;;;;;;;;17.60;99.90;;;;;;5016292;28;207727;-70
2023/04/16 12:17:41;;;;;;;;;;;17.60;99.90;;;;;;5060522;28;23137;-71
2023/04/16 12:20:10;;;;;;;;;;;17.80;99.90;;;;;;5044785;28;207637;-69
2023/04/16 12:22:36;;;;;;;;;;;18.10;99.90;;;;;;5025050;28;208718;-70
2023/04/16 12:25:12;;;;;;;;;;;18.50;99.90;;;;;;5058705;28;19927;-71
2023/04/16 12:27:45;;;;;;;;;;;18.10;99.90;;;;;;4998562;28;111680;-72
2023/04/16 12:30:12;;;;;;;;;;;18.40;99.90;;;;;;5029969;28;209708;-70
2023/04/16 12:32:39;;;;;;;;;;;18.70;99.90;;;;;;5056871;28;19928;-72
2023/04/16 12:35:05;;;;;;;;;;;18.60;99.90;;;;;;5054582;28;19925;-72
2023/04/16 12:37:31;;;;;;;;;;;18.10;99.90;;;;;;4993595;28;214331;-72
2023/04/16 12:39:57;;;;;;;;;;;17.90;99.90;;;;;;5057722;28;20678;-71
2023/04/16 12:42:23;;;;;;;;;;;18.30;99.90;;;;;;4992575;28;208446;-71
2023/04/16 12:44:49;;;;;;;;;;;18.20;99.90;;;;;;5055229;28;20558;-71
2023/04/16 12:47:15;;;;;;;;;;;17.80;99.90;;;;;;5011404;28;209341;-72
2023/04/16 12:49:41;;;;;;;;;;;17.60;99.90;;;;;;5055722;28;19921;-71
2023/04/16 12:52:07;;;;;;;;;;;17.00;99.90;;;;;;5011068;28;210503;-72
2023/04/16 12:54:33;;;;;;;;;;;16.80;99.90;;;;;;5062567;28;19960;-72
2023/04/16 12:56:59;;;;;;;;;;;17.00;99.90;;;;;;5018604;28;207878;-71
2023/04/16 12:59:25;;;;;;;;;;;16.80;99.90;;;;;;5062760;28;19980;-72
2023/04/16 13:01:51;;;;;;;;;;;16.50;99.90;;;;;;5005187;28;209038;-71
2023/04/16 13:04:17;;;;;;;;;;;16.40;99.90;;;;;;5071188;28;19934;-72
2023/04/16 13:06:44;;;;;;;;;;;16.50;99.90;;;;;;5015082;28;211266;-71
2023/04/16 13:09:10;;;;;;;;;;;16.40;99.90;;;;;;5063963;28;19925;-72
2023/04/16 13:11:36;;;;;;;;;;;16.90;99.90;;;;;;4975472;28;205327;-72
2023/04/16 13:14:02;;;;;;;;;;;17.00;99.90;;;;;;5056491;28;19929;-72
2023/04/16 13:16:28;;;;;;;;;;;16.80;99.90;;;;;;5002798;28;212435;-72
2023/04/16 13:18:54;;;;;;;;;;;16.90;99.90;;;;;;5067643;28;19955;-72
2023/04/16 13:21:20;;;;;;;;;;;16.90;99.90;;;;;;4998401;28;207983;-72
2023/04/16 13:23:46;;;;;;;;;;;17.70;99.90;;;;;;5062625;28;19924;-71
2023/04/16 13:26:14;;;;;;;;;;;17.90;99.90;;;;;;5003725;28;214241;-71
2023/04/16 13:28:40;;;;;;;;;;;17.50;99.90;;;;;;5055669;28;19925;-71
2023/04/16 13:31:06;;;;;;;;;;;17.60;99.90;;;;;;5006257;28;206856;-71
2023/04/16 13:33:32;;;;;;;;;;;17.80;99.90;;;;;;5059360;28;19931;-72
2023/04/16 13:35:58;;;;;;;;;;;17.60;99.90;;;;;;5011957;28;210447;-70
2023/04/16 13:38:24;;;;;;;;;;;17.40;99.90;;;;;;5062669;28;20454;-71
2023/04/16 13:40:50;;;;;;;;;;;17.10;99.90;;;;;;5008794;28;208288;-71
2023/04/16 13:43:17;;;;;;;;;;;17.00;99.90;;;;;;5064221;28;20522;-72
2023/04/16 13:45:44;;;;;;;;;;;16.80;99.90;;;;;;5008310;28;210001;-72
2023/04/16 13:48:10;;;;;;;;;;;16.70;99.90;;;;;;5072158;28;19935;-71
2023/04/16 13:50:35;;;;;;;;;;;16.70;99.90;;;;;;5003203;28;206565;-72
2023/04/16 13:53:01;;;;;;;;;;;16.60;99.90;;;;;;5066826;28;19928;-72
2023/04/16 13:55:29;;;;;;;;;;;16.50;99.90;;;;;;5014109;28;208998;-71
2023/04/16 13:57:55;;;;;;;;;;;16.60;99.90;;;;;;5052934;28;19931;-71
2023/04/16 14:00:21;;;;;;;;;;;16.40;99.90;;;;;;4979896;28;207473;-70
2023/04/16 14:02:48;;;;;;;;;;;16.10;99.90;;;;;;5022115;28;19928;-71
2023/04/16 14:05:14;;;;;;;;;;;16.20;99.90;;;;;;5002345;28;218742;-72
2023/04/16 14:07:40;;;;;;;;;;;16.20;99.90;;;;;;5054949;28;19933;-72
2023/04/16 14:10:06;;;;;;;;;;;16.30;99.90;;;;;;5050802;28;206978;-70
2023/04/16 14:12:32;;;;;;;;;;;16.30;99.90;;;;;;5022611;28;209867;-71
2023/04/16 14:14:58;;;;;;;;;;;16.50;99.90;;;;;;5060034;28;20054;-71